Wetterdaten: Dienstag, 03.08.2010
Datum Zeit Temp. A. Feuchte A. Luftdruck Regen Wind Richtung Richtung Sonnenschein UV Solar Windben
03.08.2010 00:00 16,6 C 85 % 1013,8 hPa 0,0 mm 0,0 km/h (0 Bft) W-SW 247 0 min 0 UV-I 0 W/m 1,6 km/h (1 Bft)
03.08.2010 00:10 16,4 C 84 % 1013,6 hPa 0,0 mm 0,0 km/h (0 Bft) W-SW 247 0 min 0 UV-I 0 W/m 1,6 km/h (1 Bft)
03.08.2010 00:20 16,2 C 85 % 1013,7 hPa 0,0 mm 0,0 km/h (0 Bft) W-SW 247 0 min 0 UV-I 0 W/m 1,6 km/h (1 Bft)
03.08.2010 00:30 16,1 C 85 % 1013,8 hPa 0,0 mm 0,0 km/h (0 Bft) N 0 0 min 0 UV-I 0 W/m 0,0 km/h (0 Bft)
03.08.2010 00:40 15,9 C 86 % 1013,7 hPa 0,0 mm 0,0 km/h (0 Bft) N 0 0 min 0 UV-I 0 W/m 0,0 km/h (0 Bft)
03.08.2010 00:50 15,7 C 86 % 1013,7 hPa 0,0 mm 0,0 km/h (0 Bft) N 0 0 min 0 UV-I 0 W/m 0,0 km/h (0 Bft)
03.08.2010 01:00 15,6 C 86 % 1013,6 hPa 0,0 mm 0,0 km/h (0 Bft) N 0 0 min 0 UV-I 0 W/m 0,0 km/h (0 Bft)
03.08.2010 01:10 15,3 C 87 % 1013,4 hPa 0,0 mm 0,0 km/h (0 Bft) N 0 0 min 0 UV-I 0 W/m 0,0 km/h (0 Bft)
03.08.2010 01:20 15,1 C 87 % 1013,4 hPa 0,0 mm 0,0 km/h (0 Bft) N 0 0 min 0 UV-I 0 W/m 0,0 km/h (0 Bft)
03.08.2010 01:30 15,1 C 88 % 1013,5 hPa 0,0 mm 0,0 km/h (0 Bft) N 0 0 min 0 UV-I 0 W/m 0,0 km/h (0 Bft)
03.08.2010 01:40 15,1 C 88 % 1013,5 hPa 0,0 mm 0,0 km/h (0 Bft) W-SW 247 0 min 0 UV-I 0 W/m 1,6 km/h (1 Bft)
03.08.2010 01:50 15,1 C 89 % 1013,6 hPa 0,0 mm 0,0 km/h (0 Bft) W-SW 247 0 min 0 UV-I 0 W/m 1,6 km/h (1 Bft)
03.08.2010 02:00 15,0 C 89 % 1013,9 hPa 0,0 mm 0,0 km/h (0 Bft) W-SW 247 0 min 0 UV-I 0 W/m 1,6 km/h (1 Bft)
03.08.2010 02:10 14,9 C 90 % 1013,9 hPa 0,0 mm 0,0 km/h (0 Bft) W-SW 247 0 min 0 UV-I 0 W/m 1,6 km/h (1 Bft)
03.08.2010 02:20 15,0 C 90 % 1013,8 hPa 0,0 mm 0,0 km/h (0 Bft) W-SW 247 0 min 0 UV-I 0 W/m 1,6 km/h (1 Bft)
03.08.2010 02:30 15,1 C 90 % 1013,8 hPa 0,0 mm 0,0 km/h (0 Bft) W-SW 247 0 min 0 UV-I 0 W/m 3,2 km/h (1 Bft)
03.08.2010 02:40 15,1 C 91 % 1013,8 hPa 0,0 mm 0,0 km/h (0 Bft) W-SW 247 0 min 0 UV-I 0 W/m 1,6 km/h (1 Bft)
03.08.2010 02:50 15,1 C 91 % 1013,7 hPa 0,0 mm 0,0 km/h (0 Bft) W-SW 247 0 min 0 UV-I 0 W/m 1,6 km/h (1 Bft)
03.08.2010 03:00 15,1 C 91 % 1013,8 hPa 0,0 mm 0,0 km/h (0 Bft) W-SW 247 0 min 0 UV-I 0 W/m 4,8 km/h (1 Bft)
03.08.2010 03:10 15,1 C 91 % 1013,7 hPa 0,0 mm 0,0 km/h (0 Bft) W-SW 247 0 min 0 UV-I 0 W/m 3,2 km/h (1 Bft)
03.08.2010 03:20 15,1 C 91 % 1013,7 hPa 0,0 mm 0,0 km/h (0 Bft) W-SW 247 0 min 0 UV-I 0 W/m 8,0 km/h (2 Bft)
03.08.2010 03:30 15,1 C 91 % 1013,5 hPa 0,0 mm 0,0 km/h (0 Bft) W-SW 247 0 min 0 UV-I 0 W/m 4,8 km/h (1 Bft)
03.08.2010 03:40 15,1 C 91 % 1013,3 hPa 0,0 mm 1,6 km/h (1 Bft) W-SW 247 0 min 0 UV-I 0 W/m 6,4 km/h (2 Bft)
03.08.2010 03:50 15,1 C 91 % 1013,3 hPa 0,0 mm 0,0 km/h (0 Bft) W-SW 247 0 min 0 UV-I 0 W/m 3,2 km/h (1 Bft)
03.08.2010 04:00 15,1 C 91 % 1013,3 hPa 0,0 mm 1,6 km/h (1 Bft) W-SW 247 0 min 0 UV-I 0 W/m 4,8 km/h (1 Bft)
03.08.2010 04:10 15,1 C 91 % 1013,3 hPa 0,0 mm 0,0 km/h (0 Bft) W-SW 247 0 min 0 UV-I 0 W/m 4,8 km/h (1 Bft)
03.08.2010 04:20 15,1 C 92 % 1013,3 hPa 0,0 mm 0,0 km/h (0 Bft) W-SW 247 0 min 0 UV-I 0 W/m 1,6 km/h (1 Bft)
03.08.2010 04:30 15,0 C 91 % 1013,4 hPa 0,0 mm 0,0 km/h (0 Bft) W-SW 247 0 min 0 UV-I 0 W/m 4,8 km/h (1 Bft)
03.08.2010 04:40 15,0 C 91 % 1013,5 hPa 0,0 mm 1,6 km/h (1 Bft) W-SW 247 0 min 0 UV-I 0 W/m 6,4 km/h (2 Bft)
03.08.2010 04:50 15,1 C 91 % 1013,4 hPa 0,0 mm 0,0 km/h (0 Bft) W-SW 247 0 min 0 UV-I 0 W/m 6,4 km/h (2 Bft)
03.08.2010 05:00 15,1 C 91 % 1013,3 hPa 0,0 mm 0,0 km/h (0 Bft) W-SW 247 0 min 0 UV-I 0 W/m 3,2 km/h (1 Bft)
03.08.2010 05:10 15,1 C 91 % 1013,5 hPa 0,0 mm 0,0 km/h (0 Bft) W-SW 247 0 min 0 UV-I 0 W/m 3,2 km/h (1 Bft)
03.08.2010 05:20 15,1 C 91 % 1013,3 hPa 0,0 mm 1,6 km/h (1 Bft) W-SW 247 0 min 0 UV-I 0 W/m 6,4 km/h (2 Bft)
03.08.2010 05:30 15,0 C 91 % 1013,6 hPa 0,0 mm 1,6 km/h (1 Bft) W-SW 247 0 min 0 UV-I 0 W/m 6,4 km/h (2 Bft)
03.08.2010 05:40 14,9 C 91 % 1013,6 hPa 0,0 mm 1,6 km/h (1 Bft) W 270 0 min 0 UV-I 0 W/m 6,4 km/h (2 Bft)
03.08.2010 05:50 14,9 C 91 % 1013,6 hPa 0,0 mm 1,6 km/h (1 Bft) W 270 0 min 0 UV-I 0 W/m 4,8 km/h (1 Bft)
03.08.2010 06:00 14,8 C 91 % 1013,6 hPa 0,0 mm 0,0 km/h (0 Bft) W 270 0 min 0 UV-I 0 W/m 3,2 km/h (1 Bft)
03.08.2010 06:10 14,9 C 91 % 1013,6 hPa 0,0 mm 0,0 km/h (0 Bft) W 270 10 min 0 UV-I 23 W/m 3,2 km/h (1 Bft)
03.08.2010 06:20 14,9 C 91 % 1013,6 hPa 0,0 mm 3,2 km/h (1 Bft) W 270 0 min 0 UV-I 30 W/m 8,0 km/h (2 Bft)
03.08.2010 06:30 14,9 C 91 % 1013,6 hPa 0,0 mm 1,6 km/h (1 Bft) W 270 0 min 0 UV-I 39 W/m 8,0 km/h (2 Bft)
03.08.2010 06:40 14,9 C 91 % 1013,6 hPa 0,0 mm 1,6 km/h (1 Bft) W 270 0 min 0 UV-I 26 W/m 6,4 km/h (2 Bft)
03.08.2010 06:50 14,9 C 91 % 1013,6 hPa 0,0 mm 0,0 km/h (0 Bft) W 270 0 min 0 UV-I 26 W/m 6,4 km/h (2 Bft)
03.08.2010 07:00 14,9 C 91 % 1013,5 hPa 0,0 mm 0,0 km/h (0 Bft) W 270 0 min 0 UV-I 46 W/m 4,8 km/h (1 Bft)
03.08.2010 07:10 14,9 C 91 % 1013,5 hPa 0,0 mm 1,6 km/h (1 Bft) W 270 0 min 0 UV-I 56 W/m 6,4 km/h (2 Bft)
03.08.2010 07:20 15,1 C 91 % 1013,6 hPa 0,0 mm 1,6 km/h (1 Bft) W 270 0 min 0 UV-I 60 W/m 6,4 km/h (2 Bft)
03.08.2010 07:30 15,1 C 91 % 1013,6 hPa 0,0 mm 1,6 km/h (1 Bft) W 270 0 min 0 UV-I 97 W/m 9,7 km/h (2 Bft)
03.08.2010 07:40 15,1 C 91 % 1013,7 hPa 0,0 mm 1,6 km/h (1 Bft) W 270 0 min 0 UV-I 97 W/m 8,0 km/h (2 Bft)
03.08.2010 07:50 15,2 C 90 % 1013,7 hPa 0,0 mm 1,6 km/h (1 Bft) W-NW 292 0 min 0 UV-I 62 W/m 4,8 km/h (1 Bft)
03.08.2010 08:00 15,1 C 90 % 1013,8 hPa 0,0 mm 1,4 km/h (1 Bft) W-NW 290 0 min 0 UV-I 31 W/m 4,8 km/h (1 Bft)
03.08.2010 08:10 15,1 C 90 % 1013,7 hPa 0,0 mm 1,6 km/h (1 Bft) W-NW 292 0 min 0 UV-I 42 W/m 6,4 km/h (2 Bft)
03.08.2010 08:20 15,1 C 91 % 1013,9 hPa 0,0 mm 1,6 km/h (1 Bft) W 270 0 min 0 UV-I 40 W/m 8,0 km/h (2 Bft)
03.08.2010 08:30 15,1 C 91 % 1013,9 hPa 0,0 mm 3,2 km/h (1 Bft) W 270 0 min 0 UV-I 62 W/m 9,7 km/h (2 Bft)
03.08.2010 08:40 15,1 C 91 % 1014,0 hPa 0,0 mm 1,6 km/h (1 Bft) W-SW 247 0 min 1 UV-I 74 W/m 8,0 km/h (2 Bft)
03.08.2010 08:50 15,2 C 91 % 1014,0 hPa 0,0 mm 1,6 km/h (1 Bft) W-SW 247 0 min 1 UV-I 93 W/m 6,4 km/h (2 Bft)
03.08.2010 09:00 15,2 C 91 % 1014,1 hPa 0,0 mm 1,6 km/h (1 Bft) W 270 0 min 1 UV-I 95 W/m 6,4 km/h (2 Bft)
03.08.2010 09:10 15,2 C 91 % 1014,1 hPa 0,0 mm 3,2 km/h (1 Bft) W 270 0 min 1 UV-I 77 W/m 9,7 km/h (2 Bft)
03.08.2010 09:20 15,3 C 91 % 1014,2 hPa 0,0 mm 3,2 km/h (1 Bft) W 270 0 min 1 UV-I 86 W/m 8,0 km/h (2 Bft)
03.08.2010 09:30 15,3 C 91 % 1014,2 hPa 0,0 mm 1,6 km/h (1 Bft) W 270 0 min 1 UV-I 109 W/m 9,7 km/h (2 Bft)
03.08.2010 09:40 15,4 C 91 % 1014,2 hPa 0,0 mm 3,2 km/h (1 Bft) W 270 0 min 1 UV-I 146 W/m 9,7 km/h (2 Bft)
03.08.2010 09:50 15,7 C 90 % 1014,2 hPa 0,0 mm 1,6 km/h (1 Bft) W-NW 292 0 min 1 UV-I 148 W/m 9,7 km/h (2 Bft)
03.08.2010 10:00 15,8 C 90 % 1014,1 hPa 0,0 mm 4,8 km/h (1 Bft) W 270 0 min 2 UV-I 121 W/m 11,3 km/h (2 Bft)
03.08.2010 10:10 16,0 C 89 % 1014,1 hPa 0,0 mm 3,2 km/h (1 Bft) W 270 0 min 2 UV-I 223 W/m 8,0 km/h (2 Bft)
03.08.2010 10:20 16,3 C 87 % 1014,0 hPa 0,0 mm 3,2 km/h (1 Bft) NW 315 0 min 3 UV-I 316 W/m 14,5 km/h (3 Bft)
03.08.2010 10:30 16,6 C 83 % 1014,0 hPa 0,0 mm 3,2 km/h (1 Bft) W-NW 292 10 min 3 UV-I 399 W/m 9,7 km/h (2 Bft)
03.08.2010 10:40 16,9 C 81 % 1014,1 hPa 0,0 mm 1,6 km/h (1 Bft) NW 315 0 min 2 UV-I 318 W/m 6,4 km/h (2 Bft)
03.08.2010 10:50 17,2 C 81 % 1014,0 hPa 0,0 mm 3,2 km/h (1 Bft) W 270 0 min 2 UV-I 276 W/m 11,3 km/h (2 Bft)
03.08.2010 11:00 17,1 C 79 % 1014,0 hPa 0,0 mm 3,2 km/h (1 Bft) W 270 0 min 3 UV-I 255 W/m 11,3 km/h (2 Bft)
03.08.2010 11:10 17,1 C 80 % 1013,8 hPa 0,0 mm 1,6 km/h (1 Bft) W 270 10 min 4 UV-I 441 W/m 6,4 km/h (2 Bft)
03.08.2010 11:20 18,3 C 70 % 1013,8 hPa 0,0 mm 3,2 km/h (1 Bft) NW 315 10 min 5 UV-I 891 W/m 12,9 km/h (3 Bft)
03.08.2010 11:30 18,6 C 71 % 1013,8 hPa 0,0 mm 3,2 km/h (1 Bft) W-SW 247 10 min 5 UV-I 858 W/m 9,7 km/h (2 Bft)
03.08.2010 11:40 18,9 C 70 % 1013,7 hPa 0,0 mm 4,8 km/h (1 Bft) W 270 10 min 5 UV-I 895 W/m 16,1 km/h (3 Bft)
03.08.2010 11:50 19,3 C 66 % 1013,6 hPa 0,0 mm 4,8 km/h (1 Bft) W-NW 292 10 min 5 UV-I 865 W/m 14,5 km/h (3 Bft)
03.08.2010 12:00 19,4 C 68 % 1013,4 hPa 0,0 mm 4,8 km/h (1 Bft) W 270 10 min 6 UV-I 895 W/m 17,7 km/h (3 Bft)
03.08.2010 12:10 20,0 C 64 % 1013,3 hPa 0,0 mm 6,4 km/h (2 Bft) W-SW 247 10 min 6 UV-I 1042 W/m 16,1 km/h (3 Bft)
03.08.2010 12:20 20,3 C 63 % 1013,3 hPa 0,0 mm 3,2 km/h (1 Bft) W 270 0 min 4 UV-I 381 W/m 16,1 km/h (3 Bft)
03.08.2010 12:30 19,8 C 65 % 1013,4 hPa 0,0 mm 6,4 km/h (2 Bft) W-NW 292 0 min 3 UV-I 309 W/m 19,3 km/h (3 Bft)
03.08.2010 12:40 19,6 C 64 % 1013,2 hPa 0,0 mm 4,8 km/h (1 Bft) W 270 10 min 6 UV-I 1056 W/m 16,1 km/h (3 Bft)
03.08.2010 12:50 20,6 C 63 % 1013,2 hPa 0,0 mm 4,8 km/h (1 Bft) W 270 10 min 7 UV-I 1085 W/m 16,1 km/h (3 Bft)
03.08.2010 13:00 20,9 C 58 % 1013,1 hPa 0,0 mm 6,4 km/h (2 Bft) W-NW 292 10 min 7 UV-I 983 W/m 17,7 km/h (3 Bft)
03.08.2010 13:10 21,2 C 58 % 1013,0 hPa 0,0 mm 6,4 km/h (2 Bft) W 270 10 min 7 UV-I 1055 W/m 16,1 km/h (3 Bft)
03.08.2010 13:20 21,1 C 61 % 1013,1 hPa 0,0 mm 9,7 km/h (2 Bft) W 270 10 min 6 UV-I 828 W/m 20,9 km/h (4 Bft)
03.08.2010 13:30 19,9 C 63 % 1013,2 hPa 0,0 mm 9,7 km/h (2 Bft) W 270 0 min 3 UV-I 350 W/m 22,5 km/h (4 Bft)
03.08.2010 13:40 19,2 C 63 % 1013,2 hPa 0,0 mm 8,0 km/h (2 Bft) W-NW 292 0 min 3 UV-I 253 W/m 19,3 km/h (3 Bft)
03.08.2010 13:50 18,9 C 64 % 1013,2 hPa 0,0 mm 6,4 km/h (2 Bft) W-SW 247 0 min 3 UV-I 281 W/m 17,7 km/h (3 Bft)
03.08.2010 14:00 19,1 C 62 % 1013,2 hPa 0,0 mm 4,8 km/h (1 Bft) W 270 0 min 3 UV-I 304 W/m 16,1 km/h (3 Bft)
03.08.2010 14:10 19,2 C 61 % 1013,3 hPa 0,0 mm 6,4 km/h (2 Bft) W 270 0 min 3 UV-I 325 W/m 17,7 km/h (3 Bft)
03.08.2010 14:20 19,4 C 62 % 1013,2 hPa 0,0 mm 6,4 km/h (2 Bft) W 270 0 min 3 UV-I 373 W/m 16,1 km/h (3 Bft)
03.08.2010 14:30 19,6 C 62 % 1013,1 hPa 0,0 mm 4,8 km/h (1 Bft) W 270 0 min 3 UV-I 362 W/m 11,3 km/h (2 Bft)
03.08.2010 14:40 19,9 C 60 % 1013,2 hPa 0,0 mm 1,6 km/h (1 Bft) W 270 0 min 3 UV-I 381 W/m 9,7 km/h (2 Bft)
03.08.2010 14:50 20,1 C 60 % 1013,1 hPa 0,0 mm 6,4 km/h (2 Bft) W 270 0 min 4 UV-I 408 W/m 16,1 km/h (3 Bft)
03.08.2010 15:00 20,2 C 60 % 1012,9 hPa 0,0 mm 3,2 km/h (1 Bft) NW 315 10 min 7 UV-I 1127 W/m 9,7 km/h (2 Bft)
03.08.2010 15:10 21,4 C 55 % 1012,9 hPa 0,0 mm 3,2 km/h (1 Bft) W 270 10 min 7 UV-I 1107 W/m 11,3 km/h (2 Bft)
03.08.2010 15:20 21,3 C 57 % 1013,0 hPa 0,0 mm 3,2 km/h (1 Bft) W 270 10 min 5 UV-I 570 W/m 9,7 km/h (2 Bft)
03.08.2010 15:30 20,7 C 61 % 1013,0 hPa 0,0 mm 3,2 km/h (1 Bft) W-SW 247 0 min 2 UV-I 171 W/m 14,5 km/h (3 Bft)
03.08.2010 15:40 20,4 C 63 % 1012,9 hPa 0,0 mm 3,2 km/h (1 Bft) W 270 10 min 5 UV-I 988 W/m 14,5 km/h (3 Bft)
03.08.2010 15:50 21,6 C 60 % 1012,7 hPa 0,0 mm 11,3 km/h (2 Bft) W 270 10 min 5 UV-I 974 W/m 24,1 km/h (4 Bft)
03.08.2010 16:00 21,4 C 59 % 1012,8 hPa 0,0 mm 9,4 km/h (2 Bft) W 275 10 min 3 UV-I 612 W/m 20,9 km/h (4 Bft)
03.08.2010 16:10 20,7 C 62 % 1013,1 hPa 0,0 mm 11,3 km/h (2 Bft) W 270 0 min 3 UV-I 278 W/m 25,7 km/h (4 Bft)
03.08.2010 16:20 19,2 C 74 % 1013,5 hPa 0,0 mm 11,3 km/h (2 Bft) W-SW 247 0 min 0 UV-I 49 W/m 27,4 km/h (4 Bft)
03.08.2010 16:30 17,4 C 81 % 1013,6 hPa 0,5 mm 6,4 km/h (2 Bft) W-SW 247 0 min 1 UV-I 90 W/m 19,3 km/h (3 Bft)
03.08.2010 16:40 16,8 C 83 % 1013,5 hPa 0,0 mm 6,4 km/h (2 Bft) W 270 0 min 1 UV-I 158 W/m 17,7 km/h (3 Bft)
03.08.2010 16:50 16,6 C 82 % 1013,5 hPa 0,0 mm 6,4 km/h (2 Bft) W 270 0 min 1 UV-I 167 W/m 17,7 km/h (3 Bft)
03.08.2010 17:00 16,7 C 83 % 1013,5 hPa 0,0 mm 4,8 km/h (1 Bft) W 270 0 min 1 UV-I 135 W/m 14,5 km/h (3 Bft)
03.08.2010 17:10 16,8 C 81 % 1013,5 hPa 0,0 mm 3,2 km/h (1 Bft) W 270 0 min 1 UV-I 121 W/m 9,7 km/h (2 Bft)
03.08.2010 17:20 16,8 C 81 % 1013,5 hPa 0,0 mm 1,6 km/h (1 Bft) W-SW 247 0 min 1 UV-I 128 W/m 9,7 km/h (2 Bft)
03.08.2010 17:30 16,9 C 79 % 1013,4 hPa 0,0 mm 1,6 km/h (1 Bft) W-NW 292 0 min 1 UV-I 200 W/m 8,0 km/h (2 Bft)
03.08.2010 17:40 17,7 C 75 % 1013,3 hPa 0,0 mm 1,6 km/h (1 Bft) W 270 10 min 2 UV-I 515 W/m 8,0 km/h (2 Bft)
03.08.2010 17:50 18,3 C 74 % 1013,3 hPa 0,0 mm 1,6 km/h (1 Bft) W-SW 247 0 min 2 UV-I 253 W/m 8,0 km/h (2 Bft)
03.08.2010 18:00 18,1 C 76 % 1013,3 hPa 0,0 mm 1,6 km/h (1 Bft) W-NW 292 0 min 1 UV-I 165 W/m 6,4 km/h (2 Bft)
03.08.2010 18:10 18,4 C 71 % 1013,3 hPa 0,0 mm 1,6 km/h (1 Bft) W-NW 292 10 min 2 UV-I 568 W/m 9,7 km/h (2 Bft)
03.08.2010 18:20 19,5 C 67 % 1013,4 hPa 0,0 mm 3,2 km/h (1 Bft) NW 315 10 min 2 UV-I 554 W/m 8,0 km/h (2 Bft)
03.08.2010 18:30 20,1 C 63 % 1013,4 hPa 0,0 mm 1,6 km/h (1 Bft) W-NW 292 10 min 1 UV-I 452 W/m 8,0 km/h (2 Bft)
03.08.2010 18:40 20,0 C 64 % 1013,2 hPa 0,0 mm 1,6 km/h (1 Bft) N-NW 337 10 min 1 UV-I 262 W/m 6,4 km/h (2 Bft)
03.08.2010 18:50 19,9 C 64 % 1013,1 hPa 0,0 mm 1,6 km/h (1 Bft) N-NW 337 10 min 1 UV-I 388 W/m 6,4 km/h (2 Bft)
03.08.2010 19:00 20,2 C 64 % 1013,2 hPa 0,0 mm 1,6 km/h (1 Bft) N-NW 337 10 min 1 UV-I 299 W/m 6,4 km/h (2 Bft)
03.08.2010 19:10 20,0 C 69 % 1013,2 hPa 0,0 mm 1,6 km/h (1 Bft) W 270 0 min 1 UV-I 79 W/m 8,0 km/h (2 Bft)
03.08.2010 19:20 19,2 C 71 % 1013,3 hPa 0,0 mm 1,6 km/h (1 Bft) SW 225 0 min 1 UV-I 100 W/m 8,0 km/h (2 Bft)
03.08.2010 19:30 18,7 C 72 % 1013,5 hPa 0,0 mm 1,6 km/h (1 Bft) W-SW 247 0 min 1 UV-I 72 W/m 6,4 km/h (2 Bft)
03.08.2010 19:40 18,5 C 74 % 1013,5 hPa 0,0 mm 1,6 km/h (1 Bft) SW 225 0 min 0 UV-I 62 W/m 6,4 km/h (2 Bft)
03.08.2010 19:50 18,4 C 74 % 1013,6 hPa 0,0 mm 1,6 km/h (1 Bft) W 270 0 min 0 UV-I 53 W/m 9,7 km/h (2 Bft)
03.08.2010 20:00 18,3 C 74 % 1013,6 hPa 0,0 mm 0,0 km/h (0 Bft) W 270 0 min 0 UV-I 49 W/m 3,2 km/h (1 Bft)
03.08.2010 20:10 18,2 C 73 % 1013,6 hPa 0,0 mm 0,0 km/h (0 Bft) W 270 0 min 0 UV-I 32 W/m 4,8 km/h (1 Bft)
03.08.2010 20:20 18,1 C 75 % 1013,6 hPa 0,0 mm 0,0 km/h (0 Bft) W 270 0 min 0 UV-I 23 W/m 1,6 km/h (1 Bft)
03.08.2010 20:30 17,9 C 76 % 1013,5 hPa 0,0 mm 0,0 km/h (0 Bft) W 270 0 min 0 UV-I 18 W/m 1,6 km/h (1 Bft)
03.08.2010 20:40 17,8 C 76 % 1013,5 hPa 0,0 mm 0,0 km/h (0 Bft) W 270 0 min 0 UV-I 12 W/m 1,6 km/h (1 Bft)
03.08.2010 20:50 17,7 C 77 % 1013,7 hPa 0,0 mm 0,0 km/h (0 Bft) W 270 0 min 0 UV-I 11 W/m 1,6 km/h (1 Bft)
03.08.2010 21:00 17,6 C 78 % 1013,6 hPa 0,0 mm 0,0 km/h (0 Bft) W 270 0 min 0 UV-I 7 W/m 1,6 km/h (1 Bft)
03.08.2010 21:10 17,4 C 79 % 1013,6 hPa 0,0 mm 0,0 km/h (0 Bft) W 270 0 min 0 UV-I 5 W/m 1,6 km/h (1 Bft)
03.08.2010 21:20 17,2 C 79 % 1013,6 hPa 0,0 mm 0,0 km/h (0 Bft) W 270 0 min 0 UV-I 0 W/m 1,6 km/h (1 Bft)
03.08.2010 21:30 17,1 C 79 % 1013,7 hPa 0,0 mm 0,0 km/h (0 Bft) W 270 0 min 0 UV-I 0 W/m 1,6 km/h (1 Bft)
03.08.2010 21:40 16,9 C 79 % 1013,8 hPa 0,0 mm 0,0 km/h (0 Bft) W 270 0 min 0 UV-I 0 W/m 1,6 km/h (1 Bft)
03.08.2010 21:50 16,8 C 80 % 1013,9 hPa 0,0 mm 0,0 km/h (0 Bft) W 270 0 min 0 UV-I 0 W/m 1,6 km/h (1 Bft)
03.08.2010 22:00 16,6 C 80 % 1014,0 hPa 0,0 mm 0,0 km/h (0 Bft) W 270 0 min 0 UV-I 0 W/m 1,6 km/h (1 Bft)
03.08.2010 22:10 16,4 C 80 % 1014,0 hPa 0,0 mm 0,0 km/h (0 Bft) W 270 0 min 0 UV-I 0 W/m 1,6 km/h (1 Bft)
03.08.2010 22:20 16,2 C 81 % 1013,9 hPa 0,0 mm 0,0 km/h (0 Bft) W 270 0 min 0 UV-I 0 W/m 1,6 km/h (1 Bft)
03.08.2010 22:30 15,9 C 82 % 1013,8 hPa 0,0 mm 0,0 km/h (0 Bft) W 270 0 min 0 UV-I 0 W/m 1,6 km/h (1 Bft)
03.08.2010 22:40 15,7 C 82 % 1013,9 hPa 0,0 mm 0,0 km/h (0 Bft) N 0 0 min 0 UV-I 0 W/m 0,0 km/h (0 Bft)
03.08.2010 22:50 15,5 C 83 % 1013,8 hPa 0,0 mm 0,0 km/h (0 Bft) W 270 0 min 0 UV-I 0 W/m 1,6 km/h (1 Bft)
03.08.2010 23:00 15,4 C 84 % 1013,7 hPa 0,0 mm 0,0 km/h (0 Bft) N 0 0 min 0 UV-I 0 W/m 0,0 km/h (0 Bft)
03.08.2010 23:10 15,4 C 83 % 1013,6 hPa 0,0 mm 0,0 km/h (0 Bft) N 0 0 min 0 UV-I 0 W/m 0,0 km/h (0 Bft)
03.08.2010 23:20 15,3 C 84 % 1013,6 hPa 0,0 mm 0,0 km/h (0 Bft) N 0 0 min 0 UV-I 0 W/m 0,0 km/h (0 Bft)
03.08.2010 23:30 15,1 C 84 % 1013,6 hPa 0,0 mm 0,0 km/h (0 Bft) W 269 0 min 0 UV-I 0 W/m 0,0 km/h (0 Bft)
03.08.2010 23:40 15,0 C 84 % 1013,6 hPa 0,0 mm 0,0 km/h (0 Bft) N 0 0 min 0 UV-I 0 W/m 0,0 km/h (0 Bft)
03.08.2010 23:50 14,8 C 84 % 1013,6 hPa 0,0 mm 0,0 km/h (0 Bft) N 0 0 min 0 UV-I 0 W/m 0,0 km/h (0 Bft)
_ Min-Zeit 23:50 15:10 15:50 - 00:00 - - - - - 00:30
Minimum _ 14,7 C 55 % 1012,7 hPa - 0,0 km/h (0 Bft) - - - - - 0,0 km/h (0 Bft)
_ Max-Zeit 15:10 04:20 09:20 16:30 15:50 - - 06:10 13:10 15:00 16:20
Maximum _ 21,9 C 92 % 1014,2 hPa 0,5 mm 11,3 km/h
W (2 Bft)
- - 10 min 7 UV-I 1127 W/m 27,4 km/h
SW (4 Bft)
Durchschnitt _ 17,0 C 80 % 1013,6 hPa #0,5 mm 2,2 km/h (1 Bft) W - #4:30 h 3 UV-I 318 W/m 7,7 km/h (2 Bft)